createdAt,value
2023-02-06T00:00:47.645Z,48.05
2023-02-06T00:06:00.772Z,48.18
2023-02-06T00:11:07.553Z,48.45
2023-02-06T00:16:16.497Z,48.93
2023-02-06T00:21:21.742Z,49.57
2023-02-06T00:26:24.768Z,49.33
2023-02-06T00:31:27.060Z,49.39
2023-02-06T00:36:28.966Z,49.79
2023-02-06T00:41:30.799Z,49.44
2023-02-06T00:46:32.876Z,49.60
2023-02-06T00:51:38.869Z,49.32
2023-02-06T00:56:40.781Z,49.62
2023-02-06T01:01:42.708Z,49.96
2023-02-06T01:06:44.541Z,49.94
2023-02-06T01:11:46.428Z,49.81
2023-02-06T01:16:48.285Z,49.66
2023-02-06T01:21:50.127Z,49.56
2023-02-06T01:26:51.959Z,49.16
2023-02-06T01:31:53.789Z,49.07
2023-02-06T01:36:55.610Z,49.02
2023-02-06T01:41:57.439Z,48.84
2023-02-06T01:46:59.767Z,48.78
2023-02-06T01:52:19.941Z,49.26
2023-02-06T01:57:25.562Z,49.31
2023-02-06T02:02:29.416Z,48.83
2023-02-06T02:07:35.606Z,49.11
2023-02-06T02:12:37.486Z,49.15
2023-02-06T02:18:11.296Z,49.34
2023-02-06T02:23:45.673Z,49.92
2023-02-06T02:29:01.474Z,50.18
2023-02-06T02:34:21.742Z,51.04
2023-02-06T02:39:36.083Z,51.00
2023-02-06T02:44:47.555Z,51.14
2023-02-06T02:49:50.247Z,51.18
2023-02-06T02:54:52.128Z,51.44
2023-02-06T02:59:58.224Z,51.81
2023-02-06T03:05:12.866Z,51.75
2023-02-06T03:10:30.384Z,52.11
2023-02-06T03:15:47.067Z,52.78
2023-02-06T03:20:51.290Z,52.61
2023-02-06T03:25:58.994Z,51.96
2023-02-06T03:31:03.957Z,52.04
2023-02-06T03:36:06.757Z,51.89
2023-02-06T03:41:08.915Z,51.75
2023-02-06T03:46:13.182Z,51.78
2023-02-06T03:51:19.422Z,51.53
2023-02-06T03:56:37.346Z,51.91
2023-02-06T04:01:51.323Z,52.14
2023-02-06T04:06:53.165Z,52.21
2023-02-06T04:11:55.066Z,52.18
2023-02-06T04:16:56.919Z,52.60
2023-02-06T04:21:58.908Z,53.15
2023-02-06T04:27:00.909Z,52.46
2023-02-06T04:32:03.365Z,52.65
2023-02-06T04:37:06.263Z,52.54
2023-02-06T04:42:08.259Z,52.89
2023-02-06T04:47:10.066Z,53.76
2023-02-06T04:52:12.016Z,53.92
2023-02-06T04:57:13.846Z,53.93
2023-02-06T05:02:15.783Z,53.96
2023-02-06T05:07:17.636Z,53.67
2023-02-06T05:12:19.448Z,53.47
2023-02-06T05:17:21.680Z,53.72
2023-02-06T05:22:23.497Z,53.43
2023-02-06T05:27:25.779Z,53.32
2023-02-06T05:32:27.613Z,53.27
2023-02-06T05:37:29.424Z,53.69
2023-02-06T05:42:31.384Z,53.91
2023-02-06T05:47:34.708Z,54.37
2023-02-06T05:52:36.548Z,54.32
2023-02-06T05:57:38.716Z,53.97
2023-02-06T06:02:40.569Z,53.37
2023-02-06T06:07:42.421Z,53.43
2023-02-06T06:12:44.249Z,53.19
2023-02-06T06:17:46.099Z,53.22
2023-02-06T06:22:47.977Z,53.58
2023-02-06T06:27:49.935Z,53.34
2023-02-06T06:32:51.947Z,53.07
2023-02-06T06:37:53.820Z,53.11
2023-02-06T06:42:55.674Z,52.95
2023-02-06T06:47:57.510Z,53.26
2023-02-06T06:52:59.380Z,53.24
2023-02-06T06:58:01.236Z,53.02
2023-02-06T07:03:03.148Z,53.07
2023-02-06T07:08:05.547Z,53.33
2023-02-06T07:13:07.390Z,53.54
2023-02-06T07:18:11.564Z,53.30
2023-02-06T07:23:13.550Z,53.24
2023-02-06T07:28:15.696Z,53.04
2023-02-06T07:33:17.579Z,52.88
2023-02-06T07:38:19.439Z,52.98
2023-02-06T07:43:21.294Z,52.82
2023-02-06T07:48:23.127Z,52.92
2023-02-06T07:53:24.939Z,53.09
2023-02-06T07:58:26.859Z,53.10
2023-02-06T08:03:28.811Z,53.03
2023-02-06T08:08:30.692Z,53.11
2023-02-06T08:13:32.547Z,52.89
2023-02-06T08:18:34.483Z,52.76
2023-02-06T08:23:36.896Z,53.40
2023-02-06T08:28:41.891Z,53.29
2023-02-06T08:33:44.786Z,53.52
2023-02-06T08:38:47.839Z,53.80
2023-02-06T08:43:51.064Z,53.85
2023-02-06T08:49:04.979Z,53.72
2023-02-06T08:54:11.087Z,53.77
2023-02-06T08:59:14.792Z,53.55
2023-02-06T09:04:16.906Z,53.58
2023-02-06T09:09:19.120Z,53.83
2023-02-06T09:14:20.963Z,54.17
2023-02-06T09:19:23.085Z,54.75
2023-02-06T09:24:25.448Z,54.54
2023-02-06T09:29:32.061Z,54.54
2023-02-06T09:34:34.247Z,54.37
2023-02-06T09:39:36.255Z,54.37
2023-02-06T09:44:44.542Z,54.45
2023-02-06T09:49:49.266Z,54.62
2023-02-06T09:55:19.492Z,54.79
2023-02-06T10:00:24.563Z,54.45
2023-02-06T10:06:05.783Z,54.23
2023-02-06T10:11:45.141Z,53.75
2023-02-06T10:17:01.163Z,54.14
2023-02-06T10:22:10.117Z,54.41
2023-02-06T10:27:14.118Z,54.20
2023-02-06T10:32:30.824Z,54.90
2023-02-06T10:37:50.969Z,55.41
2023-02-06T10:43:15.975Z,55.31
2023-02-06T10:48:37.288Z,54.87
2023-02-06T10:53:48.966Z,54.69
2023-02-06T10:59:01.273Z,54.33
2023-02-06T11:04:27.825Z,54.15
2023-02-06T11:09:30.302Z,53.88
2023-02-06T11:14:38.125Z,54.04
2023-02-06T11:19:42.935Z,54.43
2023-02-06T11:25:07.932Z,53.84
2023-02-06T11:30:35.379Z,54.10
2023-02-06T11:35:49.612Z,54.05
2023-02-06T11:41:01.578Z,53.67
2023-02-06T11:46:15.192Z,53.74
2023-02-06T11:51:17.297Z,53.46
2023-02-06T11:56:21.052Z,53.82
2023-02-06T12:01:22.927Z,53.63
2023-02-06T12:06:32.044Z,54.02
2023-02-06T12:12:12.887Z,53.92
2023-02-06T12:17:27.193Z,53.69
2023-02-06T12:22:36.372Z,53.53
2023-02-06T12:27:40.706Z,53.50
2023-02-06T12:32:46.949Z,53.26
2023-02-06T12:37:55.568Z,53.52
2023-02-06T12:43:13.056Z,52.97
2023-02-06T12:48:17.527Z,52.93
2023-02-06T12:53:28.297Z,53.23
2023-02-06T12:58:51.655Z,53.40
2023-02-06T13:03:57.153Z,52.81
2023-02-06T13:09:03.655Z,53.41
2023-02-06T13:14:27.554Z,52.89
2023-02-06T13:19:51.310Z,52.80
2023-02-06T13:24:53.226Z,52.79
2023-02-06T13:29:55.088Z,52.32
2023-02-06T13:35:13.199Z,52.58
2023-02-06T13:40:23.845Z,52.08
2023-02-06T13:45:42.074Z,52.45
2023-02-06T13:51:07.366Z,52.27
2023-02-06T13:56:46.858Z,52.25
2023-02-06T14:01:49.079Z,52.05
2023-02-06T14:07:06.108Z,51.15
2023-02-06T14:12:38.996Z,51.36
2023-02-06T14:18:30.646Z,51.53
2023-02-06T14:23:51.172Z,50.72
2023-02-06T14:29:33.831Z,50.90
2023-02-06T14:34:45.874Z,50.31
2023-02-06T14:39:50.123Z,50.88
2023-02-06T14:45:15.198Z,50.14
2023-02-06T14:50:29.621Z,50.31
2023-02-06T14:55:36.104Z,49.92
2023-02-06T15:00:38.220Z,49.97
2023-02-06T15:05:40.337Z,49.93
2023-02-06T15:10:42.177Z,50.34
2023-02-06T15:15:56.920Z,49.62
2023-02-06T15:21:04.064Z,50.15
2023-02-06T15:26:24.611Z,49.48
2023-02-06T15:31:28.250Z,50.09
2023-02-06T15:36:38.660Z,50.03
2023-02-06T15:41:47.332Z,49.89
2023-02-06T15:46:54.072Z,49.05
2023-02-06T15:51:56.038Z,49.67
2023-02-06T15:57:05.775Z,49.41
2023-02-06T16:02:08.080Z,49.58
2023-02-06T16:07:22.775Z,49.70
2023-02-06T16:12:25.177Z,49.69
2023-02-06T16:17:41.290Z,49.71
2023-02-06T16:22:43.132Z,49.64
2023-02-06T16:27:46.326Z,49.72
2023-02-06T16:32:48.550Z,49.19
2023-02-06T16:37:52.931Z,49.63
2023-02-06T16:42:54.875Z,49.79
2023-02-06T16:47:56.836Z,49.36
2023-02-06T16:53:00.755Z,49.18
2023-02-06T16:58:02.735Z,49.31
2023-02-06T17:03:04.622Z,49.35
2023-02-06T17:08:24.735Z,49.27
2023-02-06T17:13:26.689Z,49.40
2023-02-06T17:18:28.564Z,49.40
2023-02-06T17:23:30.449Z,49.36
2023-02-06T17:28:32.340Z,49.13
2023-02-06T17:33:34.939Z,49.38
2023-02-06T17:38:36.756Z,48.85
2023-02-06T17:43:38.711Z,49.19
2023-02-06T17:48:42.791Z,49.04
2023-02-06T17:53:44.897Z,49.55
2023-02-06T17:58:47.230Z,49.51
2023-02-06T18:03:50.489Z,49.48
2023-02-06T18:08:52.480Z,49.47
2023-02-06T18:13:54.500Z,49.51
2023-02-06T18:18:56.979Z,49.68
2023-02-06T18:23:59.086Z,49.46
2023-02-06T18:29:05.003Z,49.31
2023-02-06T18:34:08.459Z,49.41
2023-02-06T18:39:10.516Z,49.45
2023-02-06T18:44:13.813Z,49.79
2023-02-06T18:49:16.001Z,49.87
2023-02-06T18:54:18.174Z,50.24
2023-02-06T18:59:20.795Z,50.01
2023-02-06T19:04:23.031Z,49.70
2023-02-06T19:09:25.580Z,50.10
2023-02-06T19:14:28.574Z,49.92
2023-02-06T19:19:30.392Z,49.97
2023-02-06T19:24:32.398Z,50.24
2023-02-06T19:29:36.532Z,50.32
2023-02-06T19:34:40.411Z,50.62
2023-02-06T19:39:43.442Z,50.40
2023-02-06T19:44:45.843Z,50.55
2023-02-06T19:49:51.491Z,50.59
2023-02-06T19:54:53.899Z,50.79
2023-02-06T19:59:55.744Z,51.20
2023-02-06T20:04:57.634Z,51.07
2023-02-06T20:09:59.608Z,51.27
2023-02-06T20:15:02.569Z,51.11
2023-02-06T20:20:06.627Z,51.15
2023-02-06T20:25:09.116Z,51.08
2023-02-06T20:30:12.173Z,50.86
2023-02-06T20:35:14.229Z,51.26
2023-02-06T20:40:16.615Z,51.31
2023-02-06T20:45:18.620Z,52.12
2023-02-06T20:50:20.455Z,52.29
2023-02-06T20:55:22.311Z,52.39
2023-02-06T21:00:24.173Z,52.91
2023-02-06T21:05:32.442Z,52.46
2023-02-06T21:10:34.338Z,52.17
2023-02-06T21:15:36.248Z,51.55
2023-02-06T21:20:38.275Z,51.11
2023-02-06T21:25:40.852Z,50.97
2023-02-06T21:30:42.761Z,51.17
2023-02-06T21:35:51.493Z,50.85
2023-02-06T21:40:53.328Z,50.67
2023-02-06T21:45:57.799Z,50.57
2023-02-06T21:51:06.473Z,50.50
2023-02-06T21:56:14.415Z,50.74
2023-02-06T22:01:18.664Z,51.01
2023-02-06T22:06:21.023Z,51.07
2023-02-06T22:11:30.492Z,50.55
2023-02-06T22:16:33.481Z,50.75
2023-02-06T22:21:35.611Z,50.63
2023-02-06T22:26:38.928Z,50.77
2023-02-06T22:31:43.268Z,50.14
2023-02-06T22:36:45.706Z,50.55
2023-02-06T22:41:48.002Z,50.53
2023-02-06T22:46:52.357Z,51.11
2023-02-06T22:51:54.356Z,51.04
2023-02-06T22:56:56.260Z,51.56
2023-02-06T23:01:59.228Z,52.40
2023-02-06T23:07:01.840Z,52.86
2023-02-06T23:12:04.366Z,52.34
2023-02-06T23:17:06.211Z,52.37
2023-02-06T23:22:10.638Z,52.43
2023-02-06T23:27:12.547Z,52.84
2023-02-06T23:32:14.413Z,53.18
2023-02-06T23:37:16.199Z,53.62
2023-02-06T23:42:18.025Z,53.71
2023-02-06T23:47:19.834Z,53.38
2023-02-06T23:52:21.690Z,53.66
2023-02-06T23:57:23.563Z,53.61
